sensor_id;sensor_type;location;lat;lon;timestamp;P1;durP1;ratioP1;P2;durP2;ratioP2
3953;SDS011;1991;48.682;9.030;2023-02-28T00:00:04;3.07;;;2.07;;
3953;SDS011;1991;48.682;9.030;2023-02-28T00:02:40;3.57;;;1.53;;
3953;SDS011;1991;48.682;9.030;2023-02-28T00:05:08;4.03;;;1.70;;
3953;SDS011;1991;48.682;9.030;2023-02-28T00:07:35;2.43;;;1.80;;
3953;SDS011;1991;48.682;9.030;2023-02-28T00:10:01;1.90;;;1.60;;
3953;SDS011;1991;48.682;9.030;2023-02-28T00:12:27;2.50;;;1.73;;
3953;SDS011;1991;48.682;9.030;2023-02-28T00:14:52;2.50;;;2.00;;
3953;SDS011;1991;48.682;9.030;2023-02-28T00:17:18;2.80;;;1.73;;
3953;SDS011;1991;48.682;9.030;2023-02-28T00:19:49;3.47;;;1.70;;
3953;SDS011;1991;48.682;9.030;2023-02-28T00:22:16;5.37;;;2.10;;
3953;SDS011;1991;48.682;9.030;2023-02-28T00:24:43;4.20;;;2.00;;
3953;SDS011;1991;48.682;9.030;2023-02-28T00:27:09;2.60;;;1.97;;
3953;SDS011;1991;48.682;9.030;2023-02-28T00:29:35;2.30;;;1.93;;
3953;SDS011;1991;48.682;9.030;2023-02-28T00:32:01;2.37;;;2.17;;
3953;SDS011;1991;48.682;9.030;2023-02-28T00:34:27;2.90;;;1.80;;
3953;SDS011;1991;48.682;9.030;2023-02-28T00:36:54;1.73;;;1.60;;
3953;SDS011;1991;48.682;9.030;2023-02-28T00:39:20;4.50;;;2.50;;
3953;SDS011;1991;48.682;9.030;2023-02-28T00:41:46;4.70;;;2.07;;
3953;SDS011;1991;48.682;9.030;2023-02-28T00:44:11;2.23;;;1.63;;
3953;SDS011;1991;48.682;9.030;2023-02-28T00:46:37;3.83;;;2.07;;
3953;SDS011;1991;48.682;9.030;2023-02-28T00:49:03;4.80;;;2.20;;
3953;SDS011;1991;48.682;9.030;2023-02-28T00:51:28;12.40;;;6.00;;
3953;SDS011;1991;48.682;9.030;2023-02-28T00:53:54;7.20;;;3.40;;
3953;SDS011;1991;48.682;9.030;2023-02-28T00:56:20;13.77;;;7.20;;
3953;SDS011;1991;48.682;9.030;2023-02-28T00:58:45;5.23;;;3.37;;
3953;SDS011;1991;48.682;9.030;2023-02-28T01:01:11;5.73;;;3.47;;
3953;SDS011;1991;48.682;9.030;2023-02-28T01:03:37;13.30;;;6.97;;
3953;SDS011;1991;48.682;9.030;2023-02-28T01:06:03;7.37;;;3.60;;
3953;SDS011;1991;48.682;9.030;2023-02-28T01:08:29;2.97;;;2.00;;
3953;SDS011;1991;48.682;9.030;2023-02-28T01:10:55;5.77;;;2.87;;
3953;SDS011;1991;48.682;9.030;2023-02-28T01:13:20;5.90;;;3.27;;
3953;SDS011;1991;48.682;9.030;2023-02-28T01:15:49;3.40;;;2.30;;
3953;SDS011;1991;48.682;9.030;2023-02-28T01:18:16;8.37;;;4.10;;
3953;SDS011;1991;48.682;9.030;2023-02-28T01:20:42;4.50;;;1.90;;
3953;SDS011;1991;48.682;9.030;2023-02-28T01:23:08;6.60;;;2.40;;
3953;SDS011;1991;48.682;9.030;2023-02-28T01:25:34;4.53;;;2.37;;
3953;SDS011;1991;48.682;9.030;2023-02-28T01:28:01;4.17;;;2.40;;
3953;SDS011;1991;48.682;9.030;2023-02-28T01:30:27;5.23;;;2.67;;
3953;SDS011;1991;48.682;9.030;2023-02-28T01:32:53;8.53;;;2.53;;
3953;SDS011;1991;48.682;9.030;2023-02-28T01:35:19;2.20;;;2.00;;
3953;SDS011;1991;48.682;9.030;2023-02-28T01:37:45;8.67;;;2.90;;
3953;SDS011;1991;48.682;9.030;2023-02-28T01:40:10;6.37;;;3.70;;
3953;SDS011;1991;48.682;9.030;2023-02-28T01:42:37;5.50;;;3.13;;
3953;SDS011;1991;48.682;9.030;2023-02-28T01:45:19;3.20;;;2.23;;
3953;SDS011;1991;48.682;9.030;2023-02-28T01:47:55;6.33;;;3.60;;
3953;SDS011;1991;48.682;9.030;2023-02-28T01:50:26;16.80;;;7.50;;
3953;SDS011;1991;48.682;9.030;2023-02-28T01:52:55;11.10;;;4.60;;
3953;SDS011;1991;48.682;9.030;2023-02-28T01:55:24;6.93;;;3.10;;
3953;SDS011;1991;48.682;9.030;2023-02-28T01:57:54;9.50;;;4.70;;
3953;SDS011;1991;48.682;9.030;2023-02-28T02:00:22;9.37;;;3.10;;
3953;SDS011;1991;48.682;9.030;2023-02-28T02:02:52;8.87;;;4.20;;
3953;SDS011;1991;48.682;9.030;2023-02-28T02:05:23;24.50;;;9.23;;
3953;SDS011;1991;48.682;9.030;2023-02-28T02:07:56;5.93;;;3.20;;
3953;SDS011;1991;48.682;9.030;2023-02-28T02:10:31;12.13;;;4.87;;
3953;SDS011;1991;48.682;9.030;2023-02-28T02:13:13;5.23;;;3.23;;
3953;SDS011;1991;48.682;9.030;2023-02-28T02:18:41;10.67;;;4.57;;
3953;SDS011;1991;48.682;9.030;2023-02-28T02:34:51;14.37;;;5.50;;
3953;SDS011;1991;48.682;9.030;2023-02-28T02:37:40;18.33;;;7.37;;
3953;SDS011;1991;48.682;9.030;2023-02-28T02:40:15;11.03;;;4.70;;
3953;SDS011;1991;48.682;9.030;2023-02-28T02:43:30;7.27;;;3.20;;
3953;SDS011;1991;48.682;9.030;2023-02-28T02:45:45;5.07;;;2.60;;
3953;SDS011;1991;48.682;9.030;2023-02-28T02:48:18;12.90;;;5.23;;
3953;SDS011;1991;48.682;9.030;2023-02-28T02:50:48;12.37;;;4.60;;
3953;SDS011;1991;48.682;9.030;2023-02-28T02:53:17;16.63;;;6.30;;
3953;SDS011;1991;48.682;9.030;2023-02-28T02:55:47;7.43;;;3.90;;
3953;SDS011;1991;48.682;9.030;2023-02-28T02:58:19;5.43;;;3.00;;
3953;SDS011;1991;48.682;9.030;2023-02-28T03:00:50;7.63;;;3.33;;
3953;SDS011;1991;48.682;9.030;2023-02-28T03:03:19;10.10;;;3.93;;
3953;SDS011;1991;48.682;9.030;2023-02-28T03:05:54;6.90;;;4.10;;
3953;SDS011;1991;48.682;9.030;2023-02-28T03:08:25;6.90;;;3.60;;
3953;SDS011;1991;48.682;9.030;2023-02-28T03:10:51;7.73;;;4.03;;
3953;SDS011;1991;48.682;9.030;2023-02-28T03:19:24;10.73;;;5.07;;
3953;SDS011;1991;48.682;9.030;2023-02-28T03:24:45;4.80;;;2.97;;
3953;SDS011;1991;48.682;9.030;2023-02-28T03:29:58;4.30;;;3.37;;
3953;SDS011;1991;48.682;9.030;2023-02-28T03:32:36;10.43;;;5.07;;
3953;SDS011;1991;48.682;9.030;2023-02-28T03:37:46;5.80;;;3.40;;
3953;SDS011;1991;48.682;9.030;2023-02-28T03:40:25;4.47;;;3.17;;
3953;SDS011;1991;48.682;9.030;2023-02-28T03:42:56;3.70;;;2.83;;
3953;SDS011;1991;48.682;9.030;2023-02-28T03:45:30;5.77;;;3.53;;
3953;SDS011;1991;48.682;9.030;2023-02-28T03:48:02;5.83;;;3.30;;
3953;SDS011;1991;48.682;9.030;2023-02-28T03:50:42;5.87;;;3.33;;
3953;SDS011;1991;48.682;9.030;2023-02-28T03:53:19;5.73;;;3.40;;
3953;SDS011;1991;48.682;9.030;2023-02-28T03:55:50;6.10;;;4.10;;
3953;SDS011;1991;48.682;9.030;2023-02-28T03:58:37;5.80;;;3.40;;
3953;SDS011;1991;48.682;9.030;2023-02-28T04:01:41;6.20;;;3.67;;
3953;SDS011;1991;48.682;9.030;2023-02-28T04:04:09;5.53;;;3.70;;
3953;SDS011;1991;48.682;9.030;2023-02-28T04:06:36;4.43;;;3.33;;
3953;SDS011;1991;48.682;9.030;2023-02-28T04:09:03;5.37;;;3.40;;
3953;SDS011;1991;48.682;9.030;2023-02-28T04:11:51;4.77;;;3.50;;
3953;SDS011;1991;48.682;9.030;2023-02-28T04:14:17;3.90;;;3.40;;
3953;SDS011;1991;48.682;9.030;2023-02-28T04:16:43;5.60;;;3.20;;
3953;SDS011;1991;48.682;9.030;2023-02-28T04:19:10;5.30;;;3.20;;
3953;SDS011;1991;48.682;9.030;2023-02-28T04:21:40;4.67;;;3.63;;
3953;SDS011;1991;48.682;9.030;2023-02-28T04:24:18;5.10;;;3.10;;
3953;SDS011;1991;48.682;9.030;2023-02-28T04:26:46;6.07;;;3.53;;
3953;SDS011;1991;48.682;9.030;2023-02-28T04:29:13;5.20;;;3.73;;
3953;SDS011;1991;48.682;9.030;2023-02-28T04:31:44;6.20;;;3.87;;
3953;SDS011;1991;48.682;9.030;2023-02-28T04:34:09;5.23;;;3.43;;
3953;SDS011;1991;48.682;9.030;2023-02-28T04:36:35;5.17;;;3.57;;
3953;SDS011;1991;48.682;9.030;2023-02-28T04:39:00;3.70;;;3.30;;
3953;SDS011;1991;48.682;9.030;2023-02-28T04:41:26;4.43;;;3.23;;
3953;SDS011;1991;48.682;9.030;2023-02-28T04:43:52;5.20;;;3.80;;
3953;SDS011;1991;48.682;9.030;2023-02-28T04:46:18;4.50;;;3.47;;
3953;SDS011;1991;48.682;9.030;2023-02-28T04:48:44;7.70;;;3.93;;
3953;SDS011;1991;48.682;9.030;2023-02-28T04:51:12;5.93;;;3.70;;
3953;SDS011;1991;48.682;9.030;2023-02-28T04:53:39;4.90;;;3.67;;
3953;SDS011;1991;48.682;9.030;2023-02-28T04:56:06;5.97;;;4.10;;
3953;SDS011;1991;48.682;9.030;2023-02-28T04:58:33;9.17;;;4.10;;
3953;SDS011;1991;48.682;9.030;2023-02-28T05:01:19;5.30;;;3.57;;
3953;SDS011;1991;48.682;9.030;2023-02-28T05:03:45;4.70;;;4.00;;
3953;SDS011;1991;48.682;9.030;2023-02-28T05:06:11;5.17;;;3.90;;
3953;SDS011;1991;48.682;9.030;2023-02-28T05:08:38;5.60;;;3.93;;
3953;SDS011;1991;48.682;9.030;2023-02-28T05:11:05;6.37;;;4.03;;
3953;SDS011;1991;48.682;9.030;2023-02-28T05:13:36;4.30;;;3.47;;
3953;SDS011;1991;48.682;9.030;2023-02-28T05:16:01;8.03;;;4.17;;
3953;SDS011;1991;48.682;9.030;2023-02-28T05:18:28;5.90;;;4.07;;
3953;SDS011;1991;48.682;9.030;2023-02-28T05:20:53;5.47;;;3.87;;
3953;SDS011;1991;48.682;9.030;2023-02-28T05:23:19;6.33;;;3.73;;
3953;SDS011;1991;48.682;9.030;2023-02-28T05:25:47;6.30;;;4.23;;
3953;SDS011;1991;48.682;9.030;2023-02-28T05:28:13;5.77;;;4.00;;
3953;SDS011;1991;48.682;9.030;2023-02-28T05:30:39;5.97;;;4.50;;
3953;SDS011;1991;48.682;9.030;2023-02-28T05:33:04;6.43;;;4.20;;
3953;SDS011;1991;48.682;9.030;2023-02-28T05:35:30;5.83;;;4.27;;
3953;SDS011;1991;48.682;9.030;2023-02-28T05:37:55;5.43;;;3.93;;
3953;SDS011;1991;48.682;9.030;2023-02-28T05:40:21;5.97;;;4.27;;
3953;SDS011;1991;48.682;9.030;2023-02-28T05:42:47;5.63;;;4.30;;
3953;SDS011;1991;48.682;9.030;2023-02-28T05:45:14;6.87;;;4.43;;
3953;SDS011;1991;48.682;9.030;2023-02-28T05:47:40;6.57;;;4.73;;
3953;SDS011;1991;48.682;9.030;2023-02-28T05:50:06;6.37;;;4.43;;
3953;SDS011;1991;48.682;9.030;2023-02-28T05:52:32;7.00;;;4.83;;
3953;SDS011;1991;48.682;9.030;2023-02-28T05:54:57;5.07;;;4.37;;
3953;SDS011;1991;48.682;9.030;2023-02-28T05:57:23;6.63;;;4.47;;
3953;SDS011;1991;48.682;9.030;2023-02-28T05:59:49;10.70;;;5.00;;
3953;SDS011;1991;48.682;9.030;2023-02-28T06:02:16;5.30;;;4.63;;
3953;SDS011;1991;48.682;9.030;2023-02-28T06:04:42;7.33;;;4.33;;
3953;SDS011;1991;48.682;9.030;2023-02-28T06:07:09;5.23;;;4.60;;
3953;SDS011;1991;48.682;9.030;2023-02-28T06:09:35;6.73;;;4.77;;
3953;SDS011;1991;48.682;9.030;2023-02-28T06:12:01;6.10;;;4.97;;
3953;SDS011;1991;48.682;9.030;2023-02-28T06:14:30;7.07;;;4.80;;
3953;SDS011;1991;48.682;9.030;2023-02-28T06:16:58;8.87;;;4.30;;
3953;SDS011;1991;48.682;9.030;2023-02-28T06:19:24;6.17;;;4.47;;
3953;SDS011;1991;48.682;9.030;2023-02-28T06:21:53;5.57;;;4.63;;
3953;SDS011;1991;48.682;9.030;2023-02-28T06:24:20;6.37;;;4.77;;
3953;SDS011;1991;48.682;9.030;2023-02-28T06:26:47;7.43;;;5.30;;
3953;SDS011;1991;48.682;9.030;2023-02-28T06:29:13;8.57;;;5.17;;
3953;SDS011;1991;48.682;9.030;2023-02-28T06:31:41;8.33;;;5.00;;
3953;SDS011;1991;48.682;9.030;2023-02-28T06:34:08;10.30;;;5.67;;
3953;SDS011;1991;48.682;9.030;2023-02-28T06:36:36;6.60;;;5.30;;
3953;SDS011;1991;48.682;9.030;2023-02-28T06:39:03;6.87;;;5.10;;
3953;SDS011;1991;48.682;9.030;2023-02-28T06:41:28;6.37;;;5.13;;
3953;SDS011;1991;48.682;9.030;2023-02-28T06:43:54;7.20;;;5.30;;
3953;SDS011;1991;48.682;9.030;2023-02-28T06:46:20;7.00;;;5.33;;
3953;SDS011;1991;48.682;9.030;2023-02-28T06:48:45;8.60;;;5.70;;
3953;SDS011;1991;48.682;9.030;2023-02-28T06:51:16;8.90;;;5.13;;
3953;SDS011;1991;48.682;9.030;2023-02-28T06:53:45;9.20;;;5.90;;
3953;SDS011;1991;48.682;9.030;2023-02-28T06:56:12;9.13;;;5.37;;
3953;SDS011;1991;48.682;9.030;2023-02-28T06:58:38;6.70;;;5.33;;
3953;SDS011;1991;48.682;9.030;2023-02-28T07:01:04;7.57;;;5.60;;
3953;SDS011;1991;48.682;9.030;2023-02-28T07:03:30;7.80;;;5.83;;
3953;SDS011;1991;48.682;9.030;2023-02-28T07:05:56;7.73;;;5.63;;
3953;SDS011;1991;48.682;9.030;2023-02-28T07:08:23;11.10;;;6.10;;
3953;SDS011;1991;48.682;9.030;2023-02-28T07:10:55;8.57;;;5.50;;
3953;SDS011;1991;48.682;9.030;2023-02-28T07:13:21;8.80;;;6.03;;
3953;SDS011;1991;48.682;9.030;2023-02-28T07:15:57;7.63;;;5.87;;
3953;SDS011;1991;48.682;9.030;2023-02-28T07:18:25;11.47;;;6.00;;
3953;SDS011;1991;48.682;9.030;2023-02-28T07:20:51;7.97;;;5.83;;
3953;SDS011;1991;48.682;9.030;2023-02-28T07:23:17;7.27;;;6.00;;
3953;SDS011;1991;48.682;9.030;2023-02-28T07:25:42;8.10;;;5.97;;
3953;SDS011;1991;48.682;9.030;2023-02-28T07:28:08;7.67;;;5.87;;
3953;SDS011;1991;48.682;9.030;2023-02-28T07:30:34;8.77;;;6.37;;
3953;SDS011;1991;48.682;9.030;2023-02-28T07:32:59;11.17;;;5.87;;
3953;SDS011;1991;48.682;9.030;2023-02-28T07:35:25;10.70;;;6.60;;
3953;SDS011;1991;48.682;9.030;2023-02-28T07:37:51;8.93;;;6.53;;
3953;SDS011;1991;48.682;9.030;2023-02-28T07:40:16;9.37;;;6.63;;
3953;SDS011;1991;48.682;9.030;2023-02-28T07:42:42;8.80;;;6.40;;
3953;SDS011;1991;48.682;9.030;2023-02-28T07:45:09;10.63;;;7.73;;
3953;SDS011;1991;48.682;9.030;2023-02-28T07:47:36;9.73;;;7.43;;
3953;SDS011;1991;48.682;9.030;2023-02-28T07:50:03;9.07;;;6.67;;
3953;SDS011;1991;48.682;9.030;2023-02-28T07:52:29;10.30;;;6.80;;
3953;SDS011;1991;48.682;9.030;2023-02-28T07:54:54;11.63;;;8.93;;
3953;SDS011;1991;48.682;9.030;2023-02-28T07:57:20;10.13;;;7.03;;
3953;SDS011;1991;48.682;9.030;2023-02-28T07:59:45;9.23;;;7.80;;
3953;SDS011;1991;48.682;9.030;2023-02-28T08:02:14;10.17;;;7.50;;
3953;SDS011;1991;48.682;9.030;2023-02-28T08:04:41;8.67;;;6.87;;
3953;SDS011;1991;48.682;9.030;2023-02-28T08:07:07;7.73;;;6.03;;
3953;SDS011;1991;48.682;9.030;2023-02-28T08:09:33;10.37;;;6.97;;
3953;SDS011;1991;48.682;9.030;2023-02-28T08:11:59;11.90;;;7.43;;
3953;SDS011;1991;48.682;9.030;2023-02-28T08:14:24;8.67;;;6.97;;
3953;SDS011;1991;48.682;9.030;2023-02-28T08:16:50;7.83;;;6.80;;
3953;SDS011;1991;48.682;9.030;2023-02-28T08:19:16;10.13;;;6.47;;
3953;SDS011;1991;48.682;9.030;2023-02-28T08:21:41;8.53;;;6.60;;
3953;SDS011;1991;48.682;9.030;2023-02-28T08:24:07;9.00;;;6.73;;
3953;SDS011;1991;48.682;9.030;2023-02-28T08:26:33;7.90;;;6.37;;
3953;SDS011;1991;48.682;9.030;2023-02-28T08:28:58;9.30;;;7.13;;
3953;SDS011;1991;48.682;9.030;2023-02-28T08:31:24;8.43;;;6.57;;
3953;SDS011;1991;48.682;9.030;2023-02-28T08:33:49;13.20;;;6.77;;
3953;SDS011;1991;48.682;9.030;2023-02-28T08:36:17;10.73;;;7.77;;
3953;SDS011;1991;48.682;9.030;2023-02-28T08:38:42;9.50;;;6.40;;
3953;SDS011;1991;48.682;9.030;2023-02-28T08:41:09;8.83;;;6.80;;
3953;SDS011;1991;48.682;9.030;2023-02-28T08:43:36;7.73;;;6.13;;
3953;SDS011;1991;48.682;9.030;2023-02-28T08:46:03;8.73;;;6.50;;
3953;SDS011;1991;48.682;9.030;2023-02-28T08:48:29;9.33;;;7.20;;
3953;SDS011;1991;48.682;9.030;2023-02-28T08:50:57;9.27;;;6.77;;
3953;SDS011;1991;48.682;9.030;2023-02-28T08:53:28;8.57;;;6.00;;
3953;SDS011;1991;48.682;9.030;2023-02-28T08:55:58;8.30;;;6.57;;
3953;SDS011;1991;48.682;9.030;2023-02-28T08:58:26;9.40;;;7.00;;
3953;SDS011;1991;48.682;9.030;2023-02-28T09:00:52;9.07;;;6.47;;
3953;SDS011;1991;48.682;9.030;2023-02-28T09:03:17;8.33;;;6.97;;
3953;SDS011;1991;48.682;9.030;2023-02-28T09:05:53;10.03;;;7.03;;
3953;SDS011;1991;48.682;9.030;2023-02-28T09:08:20;8.73;;;7.10;;
3953;SDS011;1991;48.682;9.030;2023-02-28T09:10:45;9.87;;;7.00;;
3953;SDS011;1991;48.682;9.030;2023-02-28T09:13:12;13.57;;;7.13;;
3953;SDS011;1991;48.682;9.030;2023-02-28T09:15:38;10.17;;;7.10;;
3953;SDS011;1991;48.682;9.030;2023-02-28T09:18:04;9.10;;;6.70;;
3953;SDS011;1991;48.682;9.030;2023-02-28T09:20:29;10.37;;;6.53;;
3953;SDS011;1991;48.682;9.030;2023-02-28T09:22:55;11.23;;;6.80;;
3953;SDS011;1991;48.682;9.030;2023-02-28T09:25:20;8.77;;;7.13;;
3953;SDS011;1991;48.682;9.030;2023-02-28T09:27:46;7.97;;;6.37;;
3953;SDS011;1991;48.682;9.030;2023-02-28T09:30:12;9.13;;;7.23;;
3953;SDS011;1991;48.682;9.030;2023-02-28T09:32:38;9.27;;;7.37;;
3953;SDS011;1991;48.682;9.030;2023-02-28T09:35:04;9.10;;;6.60;;
3953;SDS011;1991;48.682;9.030;2023-02-28T09:37:30;9.50;;;7.13;;
3953;SDS011;1991;48.682;9.030;2023-02-28T09:39:56;9.53;;;6.87;;
3953;SDS011;1991;48.682;9.030;2023-02-28T09:42:23;9.00;;;6.80;;
3953;SDS011;1991;48.682;9.030;2023-02-28T09:44:54;10.60;;;6.70;;
3953;SDS011;1991;48.682;9.030;2023-02-28T09:47:42;9.90;;;7.33;;
3953;SDS011;1991;48.682;9.030;2023-02-28T09:52:55;10.70;;;7.40;;
3953;SDS011;1991;48.682;9.030;2023-02-28T09:55:39;8.33;;;7.20;;
3953;SDS011;1991;48.682;9.030;2023-02-28T09:58:32;9.80;;;6.97;;
3953;SDS011;1991;48.682;9.030;2023-02-28T10:01:19;11.40;;;6.60;;
3953;SDS011;1991;48.682;9.030;2023-02-28T10:06:44;10.10;;;7.37;;
3953;SDS011;1991;48.682;9.030;2023-02-28T10:09:18;9.77;;;7.30;;
3953;SDS011;1991;48.682;9.030;2023-02-28T10:11:53;8.93;;;7.30;;
3953;SDS011;1991;48.682;9.030;2023-02-28T10:14:22;13.33;;;7.47;;
3953;SDS011;1991;48.682;9.030;2023-02-28T10:19:56;10.50;;;7.47;;
3953;SDS011;1991;48.682;9.030;2023-02-28T10:22:34;9.97;;;7.20;;
3953;SDS011;1991;48.682;9.030;2023-02-28T10:25:22;10.17;;;7.27;;
3953;SDS011;1991;48.682;9.030;2023-02-28T10:27:50;9.53;;;6.93;;
3953;SDS011;1991;48.682;9.030;2023-02-28T10:30:19;9.33;;;6.80;;
3953;SDS011;1991;48.682;9.030;2023-02-28T10:32:47;10.20;;;7.73;;
3953;SDS011;1991;48.682;9.030;2023-02-28T10:35:19;9.20;;;6.60;;
3953;SDS011;1991;48.682;9.030;2023-02-28T10:37:47;9.73;;;7.87;;
3953;SDS011;1991;48.682;9.030;2023-02-28T10:42:56;7.97;;;7.07;;
3953;SDS011;1991;48.682;9.030;2023-02-28T10:45:30;11.07;;;7.00;;
3953;SDS011;1991;48.682;9.030;2023-02-28T10:51:02;9.90;;;6.90;;
3953;SDS011;1991;48.682;9.030;2023-02-28T10:53:34;7.60;;;6.80;;
3953;SDS011;1991;48.682;9.030;2023-02-28T10:56:22;7.53;;;6.47;;
3953;SDS011;1991;48.682;9.030;2023-02-28T11:03:57;10.67;;;7.50;;
3953;SDS011;1991;48.682;9.030;2023-02-28T11:06:24;8.23;;;6.80;;
3953;SDS011;1991;48.682;9.030;2023-02-28T11:08:58;8.93;;;7.10;;
3953;SDS011;1991;48.682;9.030;2023-02-28T11:11:26;8.13;;;6.73;;
3953;SDS011;1991;48.682;9.030;2023-02-28T11:13:57;10.10;;;7.33;;
3953;SDS011;1991;48.682;9.030;2023-02-28T11:16:35;9.33;;;7.07;;
3953;SDS011;1991;48.682;9.030;2023-02-28T11:19:03;8.53;;;6.67;;
3953;SDS011;1991;48.682;9.030;2023-02-28T11:21:31;9.53;;;7.33;;
3953;SDS011;1991;48.682;9.030;2023-02-28T11:24:04;8.80;;;7.47;;
3953;SDS011;1991;48.682;9.030;2023-02-28T11:26:45;9.47;;;7.03;;
3953;SDS011;1991;48.682;9.030;2023-02-28T11:29:21;12.60;;;7.93;;
3953;SDS011;1991;48.682;9.030;2023-02-28T11:34:35;8.87;;;6.57;;
3953;SDS011;1991;48.682;9.030;2023-02-28T11:37:02;9.20;;;6.37;;
3953;SDS011;1991;48.682;9.030;2023-02-28T11:39:31;8.23;;;7.35;;
3953;SDS011;1991;48.682;9.030;2023-02-28T11:42:35;7.50;;;6.70;;
3953;SDS011;1991;48.682;9.030;2023-02-28T11:45:13;9.15;;;7.07;;
3953;SDS011;1991;48.682;9.030;2023-02-28T11:50:38;7.50;;;6.80;;
3953;SDS011;1991;48.682;9.030;2023-02-28T11:53:18;7.80;;;7.00;;
3953;SDS011;1991;48.682;9.030;2023-02-28T11:58:33;7.75;;;7.05;;
3953;SDS011;1991;48.682;9.030;2023-02-28T12:25:35;11.15;;;9.93;;
3953;SDS011;1991;48.682;9.030;2023-02-28T12:28:09;8.18;;;7.05;;
3953;SDS011;1991;48.682;9.030;2023-02-28T12:30:48;14.32;;;11.65;;
3953;SDS011;1991;48.682;9.030;2023-02-28T12:33:43;8.07;;;7.32;;
3953;SDS011;1991;48.682;9.030;2023-02-28T12:36:11;8.30;;;7.43;;
3953;SDS011;1991;48.682;9.030;2023-02-28T12:38:47;7.70;;;7.00;;
3953;SDS011;1991;48.682;9.030;2023-02-28T12:41:27;7.80;;;7.10;;
3953;SDS011;1991;48.682;9.030;2023-02-28T12:44:00;9.25;;;7.10;;
3953;SDS011;1991;48.682;9.030;2023-02-28T12:46:30;9.20;;;7.20;;
3953;SDS011;1991;48.682;9.030;2023-02-28T12:49:09;7.78;;;7.07;;
3953;SDS011;1991;48.682;9.030;2023-02-28T12:51:39;7.40;;;6.70;;
3953;SDS011;1991;48.682;9.030;2023-02-28T12:54:14;7.63;;;6.93;;
3953;SDS011;1991;48.682;9.030;2023-02-28T12:57:27;7.55;;;6.85;;
3953;SDS011;1991;48.682;9.030;2023-02-28T12:59:56;7.63;;;6.93;;
3953;SDS011;1991;48.682;9.030;2023-02-28T13:05:08;7.53;;;6.93;;
3953;SDS011;1991;48.682;9.030;2023-02-28T13:10:22;7.60;;;6.18;;
3953;SDS011;1991;48.682;9.030;2023-02-28T13:12:50;7.13;;;6.53;;
3953;SDS011;1991;48.682;9.030;2023-02-28T13:15:22;7.03;;;6.38;;
3953;SDS011;1991;48.682;9.030;2023-02-28T13:17:53;7.68;;;6.90;;
3953;SDS011;1991;48.682;9.030;2023-02-28T13:20:31;7.25;;;6.50;;
3953;SDS011;1991;48.682;9.030;2023-02-28T13:23:02;7.13;;;6.45;;
3953;SDS011;1991;48.682;9.030;2023-02-28T13:27:59;7.05;;;6.43;;
3953;SDS011;1991;48.682;9.030;2023-02-28T13:33:36;8.00;;;7.20;;
3953;SDS011;1991;48.682;9.030;2023-02-28T13:36:23;7.35;;;6.65;;
3953;SDS011;1991;48.682;9.030;2023-02-28T13:38:51;7.40;;;6.70;;
3953;SDS011;1991;48.682;9.030;2023-02-28T13:46:26;7.15;;;6.45;;
3953;SDS011;1991;48.682;9.030;2023-02-28T13:48:52;7.57;;;6.88;;
3953;SDS011;1991;48.682;9.030;2023-02-28T13:51:38;7.50;;;6.70;;
3953;SDS011;1991;48.682;9.030;2023-02-28T14:05:32;7.82;;;6.90;;
3953;SDS011;1991;48.682;9.030;2023-02-28T14:07:59;7.07;;;6.47;;
3953;SDS011;1991;48.682;9.030;2023-02-28T14:10:32;7.90;;;7.18;;
3953;SDS011;1991;48.682;9.030;2023-02-28T14:18:15;8.25;;;7.45;;
3953;SDS011;1991;48.682;9.030;2023-02-28T14:20:45;8.40;;;6.82;;
3953;SDS011;1991;48.682;9.030;2023-02-28T14:31:59;9.85;;;8.10;;
3953;SDS011;1991;48.682;9.030;2023-02-28T14:37:15;8.07;;;7.28;;
3953;SDS011;1991;48.682;9.030;2023-02-28T14:39:49;7.03;;;6.43;;
3953;SDS011;1991;48.682;9.030;2023-02-28T14:42:34;7.43;;;6.82;;
3953;SDS011;1991;48.682;9.030;2023-02-28T14:45:03;8.48;;;6.78;;
3953;SDS011;1991;48.682;9.030;2023-02-28T14:47:32;8.10;;;7.30;;
3953;SDS011;1991;48.682;9.030;2023-02-28T14:50:00;8.38;;;7.00;;
3953;SDS011;1991;48.682;9.030;2023-02-28T14:52:29;8.60;;;7.68;;
3953;SDS011;1991;48.682;9.030;2023-02-28T14:55:01;7.57;;;6.82;;
3953;SDS011;1991;48.682;9.030;2023-02-28T14:57:32;7.80;;;7.00;;
3953;SDS011;1991;48.682;9.030;2023-02-28T15:02:24;8.80;;;6.57;;
3953;SDS011;1991;48.682;9.030;2023-02-28T15:04:55;8.27;;;7.40;;
3953;SDS011;1991;48.682;9.030;2023-02-28T15:07:23;8.35;;;7.50;;
3953;SDS011;1991;48.682;9.030;2023-02-28T15:12:49;7.55;;;6.85;;
3953;SDS011;1991;48.682;9.030;2023-02-28T15:15:27;11.02;;;7.90;;
3953;SDS011;1991;48.682;9.030;2023-02-28T15:17:59;9.98;;;8.95;;
3953;SDS011;1991;48.682;9.030;2023-02-28T15:20:25;7.03;;;6.32;;
3953;SDS011;1991;48.682;9.030;2023-02-28T15:22:52;8.18;;;7.38;;
3953;SDS011;1991;48.682;9.030;2023-02-28T15:25:21;7.85;;;7.15;;
3953;SDS011;1991;48.682;9.030;2023-02-28T15:27:54;9.70;;;8.70;;
3953;SDS011;1991;48.682;9.030;2023-02-28T15:30:26;10.85;;;8.38;;
3953;SDS011;1991;48.682;9.030;2023-02-28T15:35:31;11.07;;;7.93;;
3953;SDS011;1991;48.682;9.030;2023-02-28T15:38:02;8.60;;;7.85;;
3953;SDS011;1991;48.682;9.030;2023-02-28T15:40:54;8.13;;;7.40;;
3953;SDS011;1991;48.682;9.030;2023-02-28T15:45:56;9.20;;;7.30;;
3953;SDS011;1991;48.682;9.030;2023-02-28T15:48:35;7.22;;;6.57;;
3953;SDS011;1991;48.682;9.030;2023-02-28T15:51:08;8.88;;;7.20;;
3953;SDS011;1991;48.682;9.030;2023-02-28T15:53:51;8.23;;;7.43;;
3953;SDS011;1991;48.682;9.030;2023-02-28T15:56:23;8.38;;;7.57;;
3953;SDS011;1991;48.682;9.030;2023-02-28T15:59:33;9.75;;;7.60;;
3953;SDS011;1991;48.682;9.030;2023-02-28T16:01:42;9.93;;;7.07;;
3953;SDS011;1991;48.682;9.030;2023-02-28T16:04:18;8.93;;;8.02;;
3953;SDS011;1991;48.682;9.030;2023-02-28T16:09:14;9.70;;;7.70;;
3953;SDS011;1991;48.682;9.030;2023-02-28T16:11:42;11.07;;;8.60;;
3953;SDS011;1991;48.682;9.030;2023-02-28T16:14:19;7.80;;;7.00;;
3953;SDS011;1991;48.682;9.030;2023-02-28T16:16:48;8.43;;;7.53;;
3953;SDS011;1991;48.682;9.030;2023-02-28T16:19:16;10.47;;;7.57;;
3953;SDS011;1991;48.682;9.030;2023-02-28T16:21:42;9.73;;;7.73;;
3953;SDS011;1991;48.682;9.030;2023-02-28T16:24:08;9.20;;;8.23;;
3953;SDS011;1991;48.682;9.030;2023-02-28T16:26:33;9.97;;;8.07;;
3953;SDS011;1991;48.682;9.030;2023-02-28T16:29:02;9.57;;;8.13;;
3953;SDS011;1991;48.682;9.030;2023-02-28T16:31:28;10.90;;;8.53;;
3953;SDS011;1991;48.682;9.030;2023-02-28T16:33:54;12.07;;;7.23;;
3953;SDS011;1991;48.682;9.030;2023-02-28T16:36:21;8.67;;;7.77;;
3953;SDS011;1991;48.682;9.030;2023-02-28T16:38:49;12.17;;;7.10;;
3953;SDS011;1991;48.682;9.030;2023-02-28T16:41:19;9.87;;;7.60;;
3953;SDS011;1991;48.682;9.030;2023-02-28T16:43:47;8.80;;;7.17;;
3953;SDS011;1991;48.682;9.030;2023-02-28T16:46:15;8.60;;;7.30;;
3953;SDS011;1991;48.682;9.030;2023-02-28T16:48:42;8.07;;;7.27;;
3953;SDS011;1991;48.682;9.030;2023-02-28T16:51:12;12.17;;;8.33;;
3953;SDS011;1991;48.682;9.030;2023-02-28T16:53:39;9.17;;;7.53;;
3953;SDS011;1991;48.682;9.030;2023-02-28T16:56:05;9.87;;;7.77;;
3953;SDS011;1991;48.682;9.030;2023-02-28T16:58:32;10.07;;;7.87;;
3953;SDS011;1991;48.682;9.030;2023-02-28T17:01:00;9.43;;;7.27;;
3953;SDS011;1991;48.682;9.030;2023-02-28T17:03:27;10.57;;;8.03;;
3953;SDS011;1991;48.682;9.030;2023-02-28T17:05:53;11.10;;;8.13;;
3953;SDS011;1991;48.682;9.030;2023-02-28T17:08:19;9.60;;;8.03;;
3953;SDS011;1991;48.682;9.030;2023-02-28T17:10:45;15.90;;;8.43;;
3953;SDS011;1991;48.682;9.030;2023-02-28T17:13:10;12.73;;;8.47;;
3953;SDS011;1991;48.682;9.030;2023-02-28T17:15:36;10.40;;;7.87;;
3953;SDS011;1991;48.682;9.030;2023-02-28T17:18:02;10.63;;;7.70;;
3953;SDS011;1991;48.682;9.030;2023-02-28T17:20:29;9.97;;;8.20;;
3953;SDS011;1991;48.682;9.030;2023-02-28T17:22:55;11.00;;;8.07;;
3953;SDS011;1991;48.682;9.030;2023-02-28T17:25:21;11.13;;;8.00;;
3953;SDS011;1991;48.682;9.030;2023-02-28T17:27:47;12.53;;;8.17;;
3953;SDS011;1991;48.682;9.030;2023-02-28T17:30:23;11.03;;;7.97;;
3953;SDS011;1991;48.682;9.030;2023-02-28T17:32:52;10.70;;;8.13;;
3953;SDS011;1991;48.682;9.030;2023-02-28T17:35:21;12.00;;;8.47;;
3953;SDS011;1991;48.682;9.030;2023-02-28T17:37:47;11.23;;;7.97;;
3953;SDS011;1991;48.682;9.030;2023-02-28T17:40:14;11.83;;;8.23;;
3953;SDS011;1991;48.682;9.030;2023-02-28T17:42:42;9.47;;;7.90;;
3953;SDS011;1991;48.682;9.030;2023-02-28T17:45:08;10.47;;;8.10;;
3953;SDS011;1991;48.682;9.030;2023-02-28T17:47:34;10.53;;;8.07;;